Terminal Aerodrome Forecast
Issued by NWS Mt. Holly, NJ

Home | Current Version | Previous Version | Text Only | Print | Product List | Glossary On
Versions: 1 2 3 4 5 6 7 8 9 10 11 12 13 14 15 16 17 18 19 20 21
000
FTUS41 KPHI 302335 RRA
TAFILG
TAF
KILG 302335Z 3100/3124 16005KT P6SM FEW015 BKN100
      TEMPO 3100/3104 3SM BR BKN015
     FM310400 25003KT 2SM BR SCT100
     FM310800 00000KT 1SM BR SCT006
     FM311100 33003KT 5SM BR FEW040
     FM311300 VRB05KT P6SM FEW040=

USA.gov is the U.S. government's official web portal to all federal, state and local government web resources and services.